Time;durP1;ratioP1;P1;durP2;ratioP2;P2;SDS_P1;SDS_P2;PMS_P1;PMS_P2;Temp;Humidity;BMP_temperature;BMP_pressure;BME280_temperature;BME280_humidity;BME280_pressure;Samples;Min_cycle;Max_cycle;Signal;HPM_P1;HPM_P2
2021/04/30 00:02:55;;;;;;;15.50;11.35;;;10.70;99.90;;;;;;6247610;28;20118;-80
2021/04/30 00:05:56;;;;;;;18.65;12.05;;;9.90;99.90;;;;;;6245499;28;20084;-82
2021/04/30 00:08:57;;;;;;;17.00;12.35;;;9.80;99.90;;;;;;6229306;28;20476;-83
2021/04/30 00:11:57;;;;;;;16.30;12.77;;;9.90;99.90;;;;;;6245505;28;20036;-83
2021/04/30 00:14:58;;;;;;;20.20;12.75;;;9.70;99.90;;;;;;6229273;28;20061;-81
2021/04/30 00:18:04;;;;;;;14.23;12.45;;;10.10;99.90;;;;;;6212570;28;20029;-82
2021/04/30 00:21:05;;;;;;;15.73;12.20;;;9.50;99.90;;;;;;6229570;28;20121;-80
2021/04/30 00:24:06;;;;;;;16.77;12.20;;;9.60;99.90;;;;;;6245623;28;20036;-83
2021/04/30 00:27:07;;;;;;;18.83;13.45;;;9.60;99.90;;;;;;6245050;28;20401;-81
2021/04/30 00:30:08;;;;;;;18.25;12.80;;;9.50;99.90;;;;;;6228552;28;20072;-83
2021/04/30 00:33:09;;;;;;;19.73;13.23;;;9.50;99.90;;;;;;6228491;28;20101;-82
2021/04/30 00:36:10;;;;;;;18.90;12.27;;;9.50;99.90;;;;;;6212261;28;20064;-80
2021/04/30 00:39:10;;;;;;;20.15;13.10;;;9.50;99.90;;;;;;6228593;28;20029;-81
2021/04/30 00:42:11;;;;;;;17.77;13.68;;;9.50;99.90;;;;;;6243287;28;20068;-81
2021/04/30 00:45:16;;;;;;;16.42;13.02;;;9.60;99.90;;;;;;6211683;28;20080;-82
2021/04/30 00:48:16;;;;;;;20.27;13.90;;;9.50;99.90;;;;;;6212242;28;20075;-83
2021/04/30 00:51:17;;;;;;;15.75;14.05;;;9.60;99.90;;;;;;6228551;28;20033;-82
2021/04/30 00:54:18;;;;;;;16.52;13.63;;;9.30;99.90;;;;;;6211663;28;20460;-83
2021/04/30 00:57:18;;;;;;;18.00;13.75;;;9.40;99.90;;;;;;6228144;28;20480;-83
2021/04/30 01:00:19;;;;;;;16.67;13.43;;;9.50;99.90;;;;;;6228032;28;20034;-81
2021/04/30 01:03:20;;;;;;;20.70;14.95;;;9.40;99.90;;;;;;6227991;28;20180;-83
2021/04/30 01:06:20;;;;;;;19.70;15.20;;;10.40;99.90;;;;;;6227942;28;20059;-82
2021/04/30 01:09:21;;;;;;;17.40;14.45;;;9.70;99.90;;;;;;6227622;28;20547;-81
2021/04/30 01:12:22;;;;;;;19.35;15.00;;;9.40;99.90;;;;;;6211364;28;20040;-81
2021/04/30 01:15:22;;;;;;;18.52;13.07;;;9.30;99.90;;;;;;6211350;28;20041;-81
2021/04/30 01:18:23;;;;;;;16.08;14.07;;;9.20;99.90;;;;;;6211404;28;20032;-83
2021/04/30 01:21:24;;;;;;;17.40;14.52;;;;;;;;;;6227496;28;20026;-82
2021/04/30 01:24:25;;;;;;;21.33;16.02;;;9.10;99.90;;;;;;6243951;28;20021;-81
2021/04/30 01:27:26;;;;;;;19.60;14.57;;;9.10;99.90;;;;;;6210642;28;20087;-80
2021/04/30 01:30:28;;;;;;;19.13;14.95;;;9.10;99.90;;;;;;6211077;28;20036;-83
2021/04/30 01:33:29;;;;;;;20.33;16.25;;;;;;;;;;6211017;28;20475;-81
2021/04/30 01:36:31;;;;;;;19.33;14.73;;;;;;;;;;6226994;28;20038;-81
2021/04/30 01:39:32;;;;;;;17.42;15.25;;;;;;;;;;6227242;28;20021;-82
2021/04/30 01:42:33;;;;;;;18.95;14.48;;;8.70;99.90;;;;;;6243744;28;20496;-82
2021/04/30 01:45:42;;;;;;;18.98;14.82;;;9.20;99.90;;;;;;6226339;28;20056;-82
2021/04/30 01:48:43;;;;;;;18.50;15.05;;;;;;;;;;6243803;28;20424;-83
2021/04/30 01:51:44;;;;;;;20.27;14.65;;;8.90;99.90;;;;;;6243226;28;20021;-81
2021/04/30 01:54:48;;;;;;;21.40;15.10;;;8.90;99.90;;;;;;6215830;28;20384;-81
2021/04/30 01:57:49;;;;;;;19.85;15.38;;;;;;;;;;6242669;28;20033;-83
2021/04/30 02:00:50;;;;;;;19.98;15.18;;;8.90;99.90;;;;;;6226278;28;20517;-81
2021/04/30 02:03:51;;;;;;;22.85;16.67;;;8.70;99.90;;;;;;6226660;28;20036;-82
2021/04/30 02:06:52;;;;;;;21.75;15.70;;;;;;;;;;6242930;28;20084;-82
2021/04/30 02:09:53;;;;;;;23.45;16.73;;;;;;;;;;6243145;28;20036;-81
2021/04/30 02:12:54;;;;;;;21.85;17.05;;;8.60;99.90;;;;;;6244150;28;20112;-81
2021/04/30 02:15:55;;;;;;;22.57;16.80;;;8.70;99.90;;;;;;6210441;28;20498;-80
2021/04/30 02:18:56;;;;;;;21.55;15.90;;;8.70;99.90;;;;;;6225942;28;20079;-81
2021/04/30 02:21:57;;;;;;;21.95;16.83;;;8.60;99.90;;;;;;6226405;28;20108;-81
2021/04/30 02:24:58;;;;;;;21.35;16.65;;;9.00;99.90;;;;;;6242193;28;20025;-80
2021/04/30 02:27:59;;;;;;;23.75;17.60;;;8.70;99.90;;;;;;6226057;28;20145;-80
2021/04/30 02:31:00;;;;;;;22.17;17.27;;;8.80;99.90;;;;;;6210100;28;20029;-81
2021/04/30 02:34:01;;;;;;;20.25;16.83;;;9.00;99.90;;;;;;6225682;28;20577;-82
2021/04/30 02:37:01;;;;;;;21.50;16.25;;;8.70;99.90;;;;;;6225645;28;20025;-81
2021/04/30 02:40:02;;;;;;;20.20;16.77;;;8.90;99.90;;;;;;6225547;28;20034;-80
2021/04/30 02:43:05;;;;;;;21.77;16.63;;;9.00;99.90;;;;;;6242523;28;20175;-81
2021/04/30 02:46:05;;;;;;;21.67;16.98;;;9.10;99.90;;;;;;6209048;28;20053;-81
2021/04/30 02:49:06;;;;;;;22.55;16.85;;;8.80;99.90;;;;;;6242318;28;20116;-81
2021/04/30 02:52:07;;;;;;;22.90;18.38;;;9.20;99.90;;;;;;6225416;28;20033;-80
2021/04/30 02:55:08;;;;;;;20.50;16.63;;;8.80;99.90;;;;;;6225410;28;20091;-81
2021/04/30 02:58:09;;;;;;;26.25;17.80;;;8.80;99.90;;;;;;6209026;28;20484;-81
2021/04/30 03:01:10;;;;;;;24.08;16.65;;;8.80;99.90;;;;;;6225529;28;20116;-81
2021/04/30 03:04:11;;;;;;;21.60;15.80;;;9.00;99.90;;;;;;6224684;28;20033;-82
2021/04/30 03:07:11;;;;;;;19.13;15.90;;;8.80;99.90;;;;;;6225156;28;20073;-81
2021/04/30 03:10:12;;;;;;;20.88;16.60;;;8.90;99.90;;;;;;6225332;28;20769;-83
2021/04/30 03:13:13;;;;;;;21.58;17.25;;;8.90;99.90;;;;;;6209166;28;20033;-80
2021/04/30 03:16:13;;;;;;;21.83;16.35;;;8.80;99.90;;;;;;6241834;28;20117;-80
2021/04/30 03:19:14;;;;;;;23.25;16.55;;;9.00;99.90;;;;;;6209531;28;20122;-81
2021/04/30 03:22:15;;;;;;;24.70;17.70;;;9.40;99.90;;;;;;6242358;28;20037;-80
2021/04/30 03:25:15;;;;;;;21.08;17.27;;;9.20;99.90;;;;;;6225454;28;20026;-83
2021/04/30 03:28:16;;;;;;;20.58;16.33;;;8.70;99.90;;;;;;6208985;28;20427;-82
2021/04/30 03:31:16;;;;;;;21.92;17.27;;;8.60;99.90;;;;;;6242066;28;20072;-81
2021/04/30 03:34:17;;;;;;;25.15;17.75;;;8.80;99.90;;;;;;6241608;28;20532;-81
2021/04/30 03:37:18;;;;;;;22.58;16.15;;;8.60;99.90;;;;;;6224980;28;20033;-82
2021/04/30 03:40:19;;;;;;;23.00;18.85;;;8.60;99.90;;;;;;6225099;28;20082;-80
2021/04/30 03:43:19;;;;;;;24.17;18.23;;;8.80;99.90;;;;;;6241741;28;20577;-82
2021/04/30 03:46:20;;;;;;;25.17;19.17;;;9.00;99.90;;;;;;6208838;28;20064;-80
2021/04/30 03:49:23;;;;;;;28.17;22.13;;;;;;;;;;6225296;28;20036;-80
2021/04/30 03:52:23;;;;;;;31.83;21.92;;;8.50;99.90;;;;;;6242097;28;20036;-82
2021/04/30 03:55:24;;;;;;;38.97;25.60;;;8.50;99.90;;;;;;6224876;28;20033;-80
2021/04/30 03:58:25;;;;;;;49.38;29.52;;;;;;;;;;6241608;28;20112;-82
2021/04/30 04:01:26;;;;;;;26.13;18.48;;;8.30;99.90;;;;;;6241492;28;20112;-80
2021/04/30 04:04:26;;;;;;;21.45;17.50;;;8.90;99.90;;;;;;6241607;28;20124;-81
2021/04/30 04:07:27;;;;;;;24.40;18.75;;;8.50;99.90;;;;;;6224515;28;20102;-83
2021/04/30 04:10:28;;;;;;;23.55;17.90;;;9.10;99.90;;;;;;6241440;28;20460;-81
2021/04/30 04:13:28;;;;;;;23.83;18.55;;;9.00;99.90;;;;;;6241115;28;20025;-80
2021/04/30 04:16:29;;;;;;;25.95;18.40;;;8.50;99.90;;;;;;6243455;28;20083;-82
2021/04/30 04:19:29;;;;;;;22.95;17.90;;;8.90;99.90;;;;;;6245875;28;20037;-80
2021/04/30 04:22:31;;;;;;;20.63;16.75;;;;;;;;;;6245767;28;20075;-80
2021/04/30 04:25:31;;;;;;;20.15;16.55;;;8.60;99.90;;;;;;6229238;28;20037;-80
2021/04/30 04:28:32;;;;;;;18.67;16.60;;;8.70;99.90;;;;;;6211943;28;20103;-79
2021/04/30 04:31:34;;;;;;;18.85;15.90;;;8.70;99.90;;;;;;6228653;28;20060;-81
2021/04/30 04:34:35;;;;;;;21.27;16.13;;;9.00;99.90;;;;;;6244109;28;20030;-81
2021/04/30 04:37:36;;;;;;;18.90;15.80;;;7.60;99.90;;;;;;6245188;28;20388;-81
2021/04/30 04:40:52;;;;;;;21.67;16.33;;;8.80;99.90;;;;;;6228191;28;20037;-80
2021/04/30 04:43:53;;;;;;;22.65;17.75;;;8.90;99.90;;;;;;6244400;28;20051;-83
2021/04/30 04:47:05;;;;;;;24.80;17.80;;;8.50;99.90;;;;;;6228081;28;20399;-83
2021/04/30 04:50:06;;;;;;;23.00;17.33;;;10.00;99.90;;;;;;6211980;28;20404;-82
2021/04/30 04:53:07;;;;;;;23.90;17.55;;;8.50;99.90;;;;;;6246378;28;20069;-81
2021/04/30 04:56:07;;;;;;;35.92;24.75;;;8.90;99.90;;;;;;6244986;28;20036;-81
2021/04/30 04:59:09;;;;;;;24.50;18.75;;;;;;;;;;6228296;28;20045;-84
2021/04/30 05:02:09;;;;;;;24.83;18.70;;;8.50;99.90;;;;;;6244897;28;20562;-83
2021/04/30 05:05:10;;;;;;;27.10;18.85;;;9.40;99.90;;;;;;6211964;28;20026;-82
2021/04/30 05:08:11;;;;;;;25.75;18.17;;;8.60;99.90;;;;;;6211072;28;20037;-81
2021/04/30 05:11:11;;;;;;;28.35;19.75;;;9.10;99.90;;;;;;6228278;28;20088;-82
2021/04/30 05:14:12;;;;;;;21.95;16.80;;;8.50;99.90;;;;;;6244412;28;20033;-84
2021/04/30 05:17:13;;;;;;;28.17;19.20;;;8.60;99.90;;;;;;6228355;28;20069;-83
2021/04/30 05:20:13;;;;;;;25.40;17.83;;;8.80;99.90;;;;;;6227814;28;20030;-81
2021/04/30 05:23:14;;;;;;;23.80;18.25;;;8.60;99.90;;;;;;6227891;28;20026;-85
2021/04/30 05:26:15;;;;;;;29.65;18.05;;;;;;;;;;6227945;28;20045;-85
2021/04/30 05:29:16;;;;;;;22.67;17.25;;;8.70;99.90;;;;;;6238096;28;20061;-85
2021/04/30 05:32:17;;;;;;;20.70;17.75;;;8.70;99.90;;;;;;6210737;28;20025;-85
2021/04/30 05:35:18;;;;;;;24.77;17.27;;;8.70;99.90;;;;;;6210246;28;20104;-85
2021/04/30 05:38:18;;;;;;;27.40;18.60;;;9.10;99.90;;;;;;6242069;28;20033;-88
2021/04/30 05:41:21;;;;;;;26.90;22.10;;;8.90;99.90;;;;;;6226053;28;20079;-85
2021/04/30 05:44:23;;;;;;;24.20;18.27;;;9.00;99.90;;;;;;6226758;28;20123;-84
2021/04/30 05:47:24;;;;;;;26.30;18.70;;;9.00;99.90;;;;;;6210152;28;20091;-85
2021/04/30 05:50:24;;;;;;;21.30;17.17;;;9.60;99.90;;;;;;6226293;28;20653;-86
2021/04/30 05:53:25;;;;;;;23.85;16.90;;;9.20;99.90;;;;;;6226583;28;20052;-84
2021/04/30 05:56:26;;;;;;;21.83;16.27;;;9.00;99.90;;;;;;6227308;28;20060;-83
2021/04/30 05:59:27;;;;;;;20.23;16.38;;;;;;;;;;6226907;28;20373;-86
2021/04/30 06:02:27;;;;;;;24.30;16.55;;;9.20;99.90;;;;;;6227012;28;20045;-85
2021/04/30 06:05:28;;;;;;;20.00;15.88;;;9.20;99.90;;;;;;6210993;28;20030;-84
2021/04/30 06:08:29;;;;;;;19.60;16.23;;;9.20;99.90;;;;;;6226626;28;20026;-84
2021/04/30 06:11:30;;;;;;;26.83;18.30;;;;;;;;;;6210483;28;20478;-84
2021/04/30 06:14:30;;;;;;;27.13;18.98;;;9.50;99.90;;;;;;6226372;28;20435;-84
2021/04/30 06:17:31;;;;;;;19.38;15.65;;;9.60;99.90;;;;;;6213639;28;20028;-84
2021/04/30 06:20:32;;;;;;;18.95;15.07;;;9.80;99.90;;;;;;6216733;28;20445;-87
2021/04/30 06:23:33;;;;;;;21.67;15.65;;;9.60;99.90;;;;;;6242829;28;20136;-85
2021/04/30 06:26:33;;;;;;;21.45;15.95;;;10.00;99.90;;;;;;6226387;28;20084;-84
2021/04/30 06:29:34;;;;;;;24.70;17.42;;;9.50;99.90;;;;;;6209795;28;20118;-82
2021/04/30 06:32:38;;;;;;;21.48;16.98;;;;;;;;;;6242605;28;20364;-86
2021/04/30 06:35:38;;;;;;;22.88;17.45;;;10.30;99.90;;;;;;6242717;28;20028;-84
2021/04/30 06:38:39;;;;;;;20.70;17.33;;;;;;;;;;6209312;28;20069;-85
2021/04/30 06:41:40;;;;;;;22.58;16.20;;;;;;;;;;6225799;28;20017;-85
2021/04/30 06:44:41;;;;;;;21.88;16.33;;;10.40;99.90;;;;;;6226004;28;20054;-85
2021/04/30 06:47:42;;;;;;;22.83;18.08;;;;;;;;;;6241672;28;20056;-84
2021/04/30 06:50:43;;;;;;;23.30;18.08;;;;;;;;;;6242412;28;20028;-83
2021/04/30 06:53:44;;;;;;;21.85;17.95;;;10.30;99.90;;;;;;6225912;28;20025;-83
2021/04/30 06:56:45;;;;;;;22.73;17.73;;;;;;;;;;6225960;28;20511;-83
2021/04/30 06:59:45;;;;;;;22.17;17.73;;;9.90;99.90;;;;;;6242059;28;20511;-83
2021/04/30 07:02:46;;;;;;;23.70;17.60;;;;;;;;;;6208882;28;20152;-84
2021/04/30 07:05:47;;;;;;;20.13;17.10;;;;;;;;;;6242261;28;20025;-83
2021/04/30 07:08:50;;;;;;;19.95;17.13;;;;;;;;;;6241862;28;20533;-83
2021/04/30 07:11:51;;;;;;;20.48;17.33;;;;;;;;;;6242331;28;20387;-84
2021/04/30 07:14:52;;;;;;;22.33;17.77;;;;;;;;;;6242071;28;20071;-86
2021/04/30 07:17:52;;;;;;;19.00;16.88;;;9.00;99.90;;;;;;6242089;28;20464;-85
2021/04/30 07:20:53;;;;;;;22.63;17.60;;;8.80;99.90;;;;;;6225306;28;20040;-86
2021/04/30 07:23:54;;;;;;;20.77;16.80;;;;;;;;;;6242083;28;20025;-85
2021/04/30 07:26:55;;;;;;;24.27;17.65;;;8.50;99.90;;;;;;6241869;28;20045;-85
2021/04/30 07:29:56;;;;;;;22.67;18.75;;;;;;;;;;6242048;28;20033;-85
2021/04/30 07:32:57;;;;;;;21.35;18.23;;;8.40;99.90;;;;;;6225172;28;20025;-84
2021/04/30 07:35:57;;;;;;;22.35;16.90;;;8.60;99.90;;;;;;6224965;28;20036;-85
2021/04/30 07:38:58;;;;;;;21.90;17.92;;;8.50;99.90;;;;;;6225544;28;20105;-84
2021/04/30 07:41:59;;;;;;;22.77;18.85;;;8.40;99.90;;;;;;6208935;28;20438;-84
2021/04/30 07:44:59;;;;;;;25.77;19.88;;;8.80;99.90;;;;;;6208815;28;20563;-84
2021/04/30 07:48:00;;;;;;;23.35;19.30;;;8.50;99.90;;;;;;6208658;28;20064;-86
2021/04/30 07:51:02;;;;;;;22.55;18.80;;;9.00;99.90;;;;;;6243137;28;20034;-87
2021/04/30 07:54:03;;;;;;;21.47;19.07;;;8.60;99.90;;;;;;6246611;28;20136;-87
2021/04/30 07:57:05;;;;;;;22.70;20.02;;;8.70;99.90;;;;;;6229279;28;20041;-83
2021/04/30 08:00:06;;;;;;;21.40;17.73;;;9.00;99.90;;;;;;6229822;28;20029;-84
2021/04/30 08:03:07;;;;;;;23.58;19.33;;;8.90;99.90;;;;;;6229499;28;20068;-86
2021/04/30 08:06:08;;;;;;;21.73;17.65;;;8.80;99.90;;;;;;6213196;28;20033;-84
2021/04/30 08:09:08;;;;;;;21.63;17.50;;;8.90;99.90;;;;;;6229050;28;20025;-83
2021/04/30 08:12:09;;;;;;;23.52;17.92;;;8.90;99.90;;;;;;6229785;28;20061;-85
2021/04/30 08:15:11;;;;;;;20.05;17.13;;;8.90;99.90;;;;;;6229267;28;20036;-87
2021/04/30 08:18:11;;;;;;;21.33;17.07;;;8.50;99.90;;;;;;6229617;28;20037;-86
2021/04/30 08:21:12;;;;;;;18.70;16.00;;;8.40;99.90;;;;;;6213046;28;20032;-84
2021/04/30 08:24:13;;;;;;;19.67;16.02;;;8.30;99.90;;;;;;6245537;28;20460;-84
2021/04/30 08:27:13;;;;;;;19.05;15.23;;;8.70;99.90;;;;;;6229347;28;20045;-84
2021/04/30 08:30:14;;;;;;;20.88;16.35;;;8.20;99.90;;;;;;6229021;28;20106;-86
2021/04/30 08:33:15;;;;;;;19.13;16.33;;;8.20;99.90;;;;;;6212514;28;20139;-85
2021/04/30 08:36:17;;;;;;;24.33;16.33;;;;;;;;;;6212709;28;20017;-84
2021/04/30 08:39:17;;;;;;;21.70;16.50;;;8.30;99.90;;;;;;6245593;28;20026;-84
2021/04/30 08:42:18;;;;;;;17.55;15.50;;;;;;;;;;6228812;28;20032;-84
2021/04/30 08:45:19;;;;;;;21.58;15.95;;;8.40;99.90;;;;;;6245192;28;20088;-85
2021/04/30 08:48:20;;;;;;;20.10;15.93;;;8.20;99.90;;;;;;6212199;28;20551;-85
2021/04/30 08:51:21;;;;;;;17.70;15.73;;;9.30;99.90;;;;;;6212567;28;20053;-85
2021/04/30 08:54:21;;;;;;;17.85;15.32;;;8.10;99.90;;;;;;6211897;28;20055;-85
2021/04/30 08:57:26;;;;;;;18.77;15.80;;;7.80;99.90;;;;;;6228414;28;20025;-84
2021/04/30 09:00:28;;;;;;;20.13;17.05;;;7.80;99.90;;;;;;6245007;28;20026;-85
2021/04/30 09:03:29;;;;;;;22.00;17.40;;;7.90;99.90;;;;;;6227321;28;20524;-84
2021/04/30 09:06:37;;;;;;;20.90;16.38;;;7.70;99.90;;;;;;6211888;28;20041;-86
2021/04/30 09:09:38;;;;;;;20.70;16.83;;;7.20;99.90;;;;;;6212036;28;20029;-84
2021/04/30 09:12:40;;;;;;;23.85;18.60;;;7.10;99.90;;;;;;6228248;28;20029;-84
2021/04/30 09:15:41;;;;;;;20.98;17.58;;;7.20;99.90;;;;;;6228383;28;20044;-84
2021/04/30 09:18:42;;;;;;;21.92;19.08;;;7.40;99.90;;;;;;6227917;28;20032;-85
2021/04/30 09:22:06;;;;;;;19.77;17.17;;;6.80;99.90;;;;;;6211288;28;20038;-85
2021/04/30 09:25:11;;;;;;;19.98;17.85;;;7.10;99.90;;;;;;6228563;28;20108;-85
2021/04/30 09:28:13;;;;;;;19.92;17.35;;;7.10;99.90;;;;;;6211667;28;20102;-85
2021/04/30 09:31:19;;;;;;;24.20;18.83;;;7.10;99.90;;;;;;6215408;28;20036;-84
2021/04/30 09:34:43;;;;;;;22.75;18.33;;;6.90;99.90;;;;;;6236444;28;20493;-86
2021/04/30 09:37:43;;;;;;;26.23;18.40;;;6.70;99.90;;;;;;6244009;28;20021;-84
2021/04/30 09:40:44;;;;;;;23.38;18.30;;;7.00;99.90;;;;;;6227514;28;20060;-87
2021/04/30 09:43:49;;;;;;;22.35;19.13;;;6.90;99.90;;;;;;6211309;28;20053;-84
2021/04/30 09:46:50;;;;;;;24.48;19.38;;;;;;;;;;6228636;28;20063;-85
2021/04/30 09:50:13;;;;;;;22.73;18.38;;;6.70;99.90;;;;;;6227410;28;20452;-86
2021/04/30 09:53:17;;;;;;;;;;;6.70;99.90;;;;;;6228828;28;20037;-86
2021/04/30 09:56:18;;;;;;;25.02;19.42;;;6.60;99.90;;;;;;6227033;28;19909;-84
2021/04/30 09:59:22;;;;;;;25.50;20.73;;;7.00;99.90;;;;;;6210448;28;20029;-84
2021/04/30 10:02:24;;;;;;;27.08;21.73;;;6.50;99.90;;;;;;6227108;28;20383;-85
2021/04/30 10:05:26;;;;;;;25.27;20.40;;;;;;;;;;6210291;28;20388;-85
2021/04/30 10:08:27;;;;;;;27.98;22.20;;;;;;;;;;6243458;28;20415;-86
2021/04/30 10:11:28;;;;;;;27.30;21.27;;;6.30;99.90;;;;;;6243293;28;20036;-84
2021/04/30 10:14:29;;;;;;;25.95;19.80;;;6.50;99.90;;;;;;6209933;28;20041;-84
2021/04/30 10:17:30;;;;;;;23.23;20.55;;;;;;;;;;6226968;28;20041;-86
2021/04/30 10:20:31;;;;;;;24.95;20.70;;;6.50;99.90;;;;;;6243056;28;20380;-85
2021/04/30 10:23:31;;;;;;;25.05;20.10;;;7.20;99.90;;;;;;6210051;28;20060;-86
2021/04/30 10:26:33;;;;;;;21.70;19.40;;;7.50;99.90;;;;;;6209908;28;20506;-84
2021/04/30 10:29:33;;;;;;;24.08;19.67;;;7.00;99.90;;;;;;6242592;28;20507;-86
2021/04/30 10:32:38;;;;;;;21.60;19.08;;;7.20;99.90;;;;;;6226324;28;20022;-85
2021/04/30 10:36:00;;;;;;;25.13;18.70;;;4.80;99.90;;;;;;6210325;28;20027;-85
2021/04/30 10:39:02;;;;;;;23.25;18.77;;;7.70;99.90;;;;;;6242503;28;20035;-84
2021/04/30 10:42:10;;;;;;;24.23;20.03;;;6.60;99.90;;;;;;6226305;28;20030;-86
2021/04/30 10:45:18;;;;;;;26.00;19.60;;;6.70;99.90;;;;;;6225039;28;20644;-84
2021/04/30 10:48:18;;;;;;;22.50;20.00;;;6.60;99.90;;;;;;6225258;28;20033;-84
2021/04/30 10:51:19;;;;;;;26.52;21.33;;;8.40;99.90;;;;;;6242522;28;20487;-82
2021/04/30 10:54:30;;;;;;;23.25;19.83;;;7.00;99.90;;;;;;6209333;28;20388;-83
2021/04/30 10:57:53;;;;;;;23.80;19.40;;;6.70;99.90;;;;;;6209623;28;20136;-81
2021/04/30 11:00:53;;;;;;;;;;;6.60;99.90;;;;;;6228056;28;20080;-83
2021/04/30 11:04:09;;;;;;;21.27;17.77;;;6.60;99.90;;;;;;6242147;28;19913;-89
2021/04/30 11:07:15;;;;;;;24.08;19.77;;;6.60;99.90;;;;;;6241446;28;20087;-86
2021/04/30 11:10:30;;;;;;;22.50;20.08;;;6.50;99.90;;;;;;6226785;28;20495;-84
2021/04/30 11:13:31;;;;;;;23.52;20.60;;;6.50;99.90;;;;;;6227037;28;20021;-85
2021/04/30 11:16:40;;;;;;;25.38;20.98;;;6.80;99.90;;;;;;6210241;28;20034;-83
2021/04/30 11:19:44;;;;;;;28.55;21.70;;;6.90;99.90;;;;;;6226071;28;20033;-83
2021/04/30 11:23:13;;;;;;;24.77;20.92;;;7.00;99.90;;;;;;6225835;28;20455;-84
2021/04/30 11:26:17;;;;;;;26.60;22.70;;;6.60;99.90;;;;;;6245279;28;20040;-82
2021/04/30 11:29:18;;;;;;;25.88;21.85;;;6.60;99.90;;;;;;6246510;28;20069;-87
2021/04/30 11:32:24;;;;;;;29.40;22.63;;;7.10;99.90;;;;;;6213999;28;20043;-86
2021/04/30 11:35:32;;;;;;;26.23;21.88;;;6.50;99.90;;;;;;6246659;28;20026;-87
2021/04/30 11:38:40;;;;;;;26.50;21.52;;;6.70;99.90;;;;;;6231314;28;20029;-87
2021/04/30 11:41:42;;;;;;;25.83;21.40;;;7.00;99.90;;;;;;6230682;28;20387;-86
2021/04/30 11:44:43;;;;;;;26.80;20.97;;;7.20;99.90;;;;;;6214134;28;20049;-87
2021/04/30 11:47:43;;;;;;;23.55;19.85;;;6.80;99.90;;;;;;6215048;28;20041;-88
2021/04/30 11:50:44;;;;;;;21.40;18.75;;;7.00;99.90;;;;;;6215718;28;20052;-88
2021/04/30 11:53:45;;;;;;;21.02;17.48;;;6.80;99.90;;;;;;6214166;28;20036;-86
2021/04/30 11:56:46;;;;;;;21.98;17.75;;;6.90;99.90;;;;;;6213474;28;20025;-85
2021/04/30 11:59:46;;;;;;;20.38;16.55;;;7.40;99.90;;;;;;6213642;28;20025;-88
2021/04/30 12:02:57;;;;;;;20.15;17.00;;;7.60;99.90;;;;;;6213610;28;20359;-86
2021/04/30 12:05:58;;;;;;;18.52;16.55;;;7.00;99.90;;;;;;6213426;28;20041;-86
2021/04/30 12:08:59;;;;;;;19.35;16.83;;;7.50;99.90;;;;;;6213422;28;20112;-88
2021/04/30 12:12:13;;;;;;;21.58;17.50;;;7.30;99.90;;;;;;6213677;28;20029;-87
2021/04/30 12:15:18;;;;;;;20.83;17.52;;;7.10;99.90;;;;;;6230278;28;20061;-86
2021/04/30 12:18:20;;;;;;;17.88;15.55;;;7.20;99.90;;;;;;6214191;28;20480;-88
2021/04/30 12:21:27;;;;;;;18.80;15.60;;;7.20;99.90;;;;;;6213088;28;20447;-85
2021/04/30 12:24:28;;;;;;;20.58;16.35;;;;;;;;;;6245834;28;20060;-85
2021/04/30 12:27:30;;;;;;;22.02;17.00;;;7.50;99.90;;;;;;6228956;28;20403;-83
2021/04/30 12:30:32;;;;;;;18.70;16.70;;;7.50;99.90;;;;;;6213121;28;20037;-84
2021/04/30 12:33:43;;;;;;;15.43;13.80;;;7.70;99.90;;;;;;6212054;28;20048;-87
2021/04/30 12:36:44;;;;;;;16.95;13.57;;;7.70;99.90;;;;;;6216056;28;20029;-84
2021/04/30 12:39:45;;;;;;;17.65;15.40;;;;;;;;;;6228801;28;20391;-86
2021/04/30 12:42:49;;;;;;;16.35;14.00;;;7.90;99.90;;;;;;6245854;28;20029;-86
2021/04/30 12:45:50;;;;;;;14.65;13.13;;;;;;;;;;6212606;28;20419;-87
2021/04/30 12:48:55;;;;;;;16.17;13.60;;;8.10;99.90;;;;;;6229305;28;20021;-84
2021/04/30 12:51:56;;;;;;;16.30;12.40;;;8.10;99.90;;;;;;6229861;28;20025;-84
2021/04/30 12:54:57;;;;;;;14.48;12.98;;;;;;;;;;6228067;28;20041;-81
2021/04/30 12:57:59;;;;;;;13.98;12.43;;;8.10;99.90;;;;;;6242359;28;20113;-87
2021/04/30 13:01:04;;;;;;;14.07;12.57;;;7.80;99.90;;;;;;6228229;28;20425;-83
2021/04/30 13:04:05;;;;;;;14.57;12.63;;;8.20;99.90;;;;;;6228510;28;20029;-82
2021/04/30 13:07:06;;;;;;;15.02;13.18;;;8.10;99.90;;;;;;6211690;28;20045;-83
2021/04/30 13:10:07;;;;;;;14.75;13.18;;;8.30;99.90;;;;;;6228103;28;20036;-83
2021/04/30 13:13:07;;;;;;;16.65;13.95;;;8.20;99.90;;;;;;6228058;28;20061;-83
2021/04/30 13:16:08;;;;;;;16.13;14.43;;;8.00;99.90;;;;;;6211795;28;20111;-83
2021/04/30 13:19:13;;;;;;;15.10;13.60;;;8.30;99.90;;;;;;6227868;28;20060;-85
2021/04/30 13:22:18;;;;;;;17.38;15.38;;;8.70;99.90;;;;;;6227652;28;20434;-84
2021/04/30 13:25:29;;;;;;;19.88;17.77;;;8.10;99.90;;;;;;6228694;28;20032;-83
2021/04/30 13:28:31;;;;;;;21.13;18.88;;;8.50;99.90;;;;;;6211570;28;20380;-84
2021/04/30 13:31:31;;;;;;;24.80;20.50;;;7.90;99.90;;;;;;6211782;28;20483;-84
2021/04/30 13:34:39;;;;;;;22.15;19.38;;;7.80;99.90;;;;;;6211180;28;20032;-83
2021/04/30 13:37:41;;;;;;;22.45;19.90;;;7.80;99.90;;;;;;6244195;28;20536;-84
2021/04/30 13:40:42;;;;;;;20.92;18.58;;;;;;;;;;6228125;28;20474;-86
2021/04/30 13:43:44;;;;;;;21.17;17.80;;;7.70;99.90;;;;;;6243469;28;20052;-85
2021/04/30 13:46:52;;;;;;;21.08;18.38;;;7.90;99.90;;;;;;6210948;28;20052;-84
2021/04/30 13:50:00;;;;;;;23.02;20.05;;;8.10;99.90;;;;;;6228269;28;20030;-82
2021/04/30 13:53:07;;;;;;;25.17;19.27;;;8.00;99.90;;;;;;6212424;28;20103;-82
2021/04/30 13:56:09;;;;;;;21.45;19.00;;;7.70;99.90;;;;;;6226653;28;20030;-83
2021/04/30 13:59:10;;;;;;;;;;;7.90;99.90;;;;;;6212708;28;20025;-84
2021/04/30 14:02:12;;;;;;;20.02;16.60;;;7.90;99.90;;;;;;6244214;28;19937;-84
2021/04/30 14:05:14;;;;;;;21.40;18.17;;;7.90;99.90;;;;;;6227080;28;20120;-86
2021/04/30 14:08:15;;;;;;;21.92;18.85;;;8.10;99.90;;;;;;6216939;28;20067;-86
2021/04/30 14:11:16;;;;;;;57.08;44.25;;;;;;;;;;6226519;28;20033;-85
2021/04/30 14:14:16;;;;;;;44.97;34.85;;;8.00;99.90;;;;;;6227282;28;20049;-85
2021/04/30 14:17:17;;;;;;;23.30;20.83;;;8.00;99.90;;;;;;6211080;28;20479;-84
2021/04/30 14:20:18;;;;;;;20.42;17.98;;;8.30;99.90;;;;;;6225631;28;20431;-84
2021/04/30 14:23:18;;;;;;;21.60;18.65;;;8.30;99.90;;;;;;6226495;28;20040;-84
2021/04/30 14:26:19;;;;;;;16.70;14.32;;;8.50;99.90;;;;;;6225929;28;20084;-86
2021/04/30 14:29:20;;;;;;;21.83;16.35;;;8.70;99.90;;;;;;6210221;28;20384;-83
2021/04/30 14:32:20;;;;;;;17.80;13.50;;;8.80;99.90;;;;;;6210190;28;20034;-86
2021/04/30 14:35:21;;;;;;;16.48;14.57;;;8.80;99.90;;;;;;6210960;28;20507;-84
2021/04/30 14:38:21;;;;;;;20.60;16.90;;;8.80;99.90;;;;;;6210074;28;20029;-87
2021/04/30 14:41:22;;;;;;;17.13;15.00;;;;;;;;;;6226646;28;20030;-83
2021/04/30 14:44:25;;;;;;;18.27;15.30;;;8.60;99.90;;;;;;6242857;28;20055;-83
2021/04/30 14:47:26;;;;;;;17.70;15.35;;;;;;;;;;6226906;28;20067;-83
2021/04/30 14:50:26;;;;;;;16.77;14.27;;;8.80;99.90;;;;;;6242784;28;20021;-86
2021/04/30 14:53:27;;;;;;;17.40;15.43;;;9.10;99.90;;;;;;6220798;28;20108;-91
2021/04/30 14:56:28;;;;;;;16.40;14.00;;;8.90;99.90;;;;;;6210169;28;20617;-85
2021/04/30 14:59:30;;;;;;;16.77;14.98;;;9.20;99.90;;;;;;6209461;28;20033;-85
2021/04/30 15:02:31;;;;;;;15.50;13.30;;;;;;;;;;6209211;28;20033;-90
2021/04/30 15:05:31;;;;;;;18.50;15.48;;;8.80;99.90;;;;;;6226986;28;20865;-91
2021/04/30 15:08:34;;;;;;;18.25;16.15;;;8.80;99.90;;;;;;6209402;28;20037;-84
2021/04/30 15:11:35;;;;;;;16.63;14.82;;;8.80;99.90;;;;;;6226942;28;20399;-84
2021/04/30 15:14:37;;;;;;;17.73;14.27;;;8.70;99.90;;;;;;6209590;28;20458;-87
2021/04/30 15:17:38;;;;;;;17.60;14.73;;;8.60;99.90;;;;;;6225097;28;20108;-87
2021/04/30 15:20:39;;;;;;;18.55;16.10;;;;;;;;;;6209877;28;20392;-89
2021/04/30 15:23:40;;;;;;;22.60;18.38;;;8.70;99.90;;;;;;6225547;28;20029;-85
2021/04/30 15:26:41;;;;;;;22.83;17.63;;;;;;;;;;6209203;28;20502;-86
2021/04/30 15:29:41;;;;;;;21.02;17.00;;;8.50;99.90;;;;;;6225974;28;20415;-85
2021/04/30 15:32:43;;;;;;;20.70;17.65;;;8.40;99.90;;;;;;6209147;28;20064;-84
2021/04/30 15:35:44;;;;;;;21.13;17.67;;;;;;;;;;6209335;28;20602;-84
2021/04/30 15:38:45;;;;;;;18.40;15.65;;;;;;;;;;6241932;28;20079;-84
2021/04/30 15:41:46;;;;;;;18.42;16.05;;;;;;;;;;6225409;28;20452;-85
2021/04/30 15:44:47;;;;;;;21.80;16.40;;;;;;;;;;6242068;28;20045;-88
2021/04/30 15:47:48;;;;;;;18.70;16.55;;;;;;;;;;6225743;28;20048;-86
2021/04/30 15:50:49;;;;;;;19.65;16.35;;;8.10;99.90;;;;;;6241952;28;20104;-87
2021/04/30 15:53:49;;;;;;;20.98;17.40;;;8.30;99.90;;;;;;6208849;28;20075;-84
2021/04/30 15:56:50;;;;;;;21.13;17.33;;;8.10;99.90;;;;;;6209037;28;20479;-84